Time;durP1;ratioP1;P1;durP2;ratioP2;P2;SDS_P1;SDS_P2;PMS_P1;PMS_P2;Temp;Humidity;BMP_temperature;BMP_pressure;BME280_temperature;BME280_humidity;BME280_pressure;Samples;Min_cycle;Max_cycle;Signal;HPM_P1;HPM_P2
2021/05/21 00:00:39;;;;;;;10.73;6.05;;;;;;;;;;4921920;29;20074;-56
2021/05/21 00:03:05;;;;;;;16.38;6.15;;;;;;;;;;4922451;29;20063;-54
2021/05/21 00:05:31;;;;;;;10.27;6.53;;;;;;;;;;4922225;29;20059;-56
2021/05/21 00:07:57;;;;;;;8.45;6.30;;;;;;;;;;4922583;29;20044;-56
2021/05/21 00:10:23;;;;;;;10.73;6.28;;;;;;;;;;4920231;29;20059;-57
2021/05/21 00:12:49;;;;;;;8.60;5.40;;;;;;;;;;4920861;29;20051;-57
2021/05/21 00:15:15;;;;;;;8.10;5.07;;;;;;;;;;4922860;29;20043;-55
2021/05/21 00:17:41;;;;;;;10.85;5.80;;;;;;;;;;4921284;29;20052;-58
2021/05/21 00:20:07;;;;;;;10.65;5.40;;;;;;;;;;4921125;29;20400;-58
2021/05/21 00:22:33;;;;;;;9.32;5.65;;;;;;;;;;4918880;29;20044;-56
2021/05/21 00:24:58;;;;;;;14.90;5.80;;;;;;;;;;4920778;29;20039;-56
2021/05/21 00:27:24;;;;;;;7.78;5.15;;;;;;;;;;4919388;29;20047;-57
2021/05/21 00:29:50;;;;;;;9.20;5.43;;;;;;;;;;4914384;29;20048;-58
2021/05/21 00:32:16;;;;;;;7.00;4.63;;;;;;;;;;4918487;29;20047;-57
2021/05/21 00:34:42;;;;;;;10.18;4.72;;;;;;;;;;4916290;29;20048;-56
2021/05/21 00:37:08;;;;;;;8.57;4.53;;;;;;;;;;4918454;29;20413;-54
2021/05/21 00:39:33;;;;;;;9.00;4.70;;;;;;;;;;4917074;29;20598;-58
2021/05/21 00:41:59;;;;;;;7.50;4.28;;;;;;;;;;4917204;29;20063;-56
2021/05/21 00:44:25;;;;;;;8.02;2.63;;;;;;;;;;4919348;29;20384;-57
2021/05/21 00:46:51;;;;;;;11.77;4.70;;;;;;;;;;4918808;29;20134;-56
2021/05/21 00:49:19;;;;;;;8.93;4.80;;;;;;;;;;4918975;29;20040;-57
2021/05/21 00:51:45;;;;;;;7.22;4.57;;;;;;;;;;4909992;29;20079;-55
2021/05/21 00:54:13;;;;;;;7.47;4.15;;;;;;;;;;4918130;29;20040;-54
2021/05/21 00:56:39;;;;;;;8.63;4.63;;;;;;;;;;4918711;29;20754;-55
2021/05/21 00:59:05;;;;;;;9.40;4.82;;;;;;;;;;4918232;29;20040;-57
2021/05/21 01:01:31;;;;;;;8.43;4.38;;;;;;;;;;4918023;29;20597;-58
2021/05/21 01:03:58;;;;;;;8.20;3.95;;;;;;;;;;4918548;29;20757;-56
2021/05/21 01:06:23;;;;;;;6.47;3.75;;;;;;;;;;4916229;29;20048;-57
2021/05/21 01:08:49;;;;;;;6.05;2.72;;;;;;;;;;4917437;29;20185;-56
2021/05/21 01:11:15;;;;;;;6.85;4.07;;;;;;;;;;4918606;29;20099;-56
2021/05/21 01:13:41;;;;;;;7.35;4.45;;;;;;;;;;4917070;29;20040;-58
2021/05/21 01:16:08;;;;;;;8.57;4.30;;;;;;;;;;4916085;29;20059;-58
2021/05/21 01:18:34;;;;;;;9.75;4.40;;;;;;;;;;4918719;29;20099;-56
2021/05/21 01:21:00;;;;;;;5.68;3.83;;;;;;;;;;4915604;29;20056;-56
2021/05/21 01:23:26;;;;;;;6.55;3.60;;;;;;;;;;4915404;29;20039;-55
2021/05/21 01:25:52;;;;;;;6.72;3.35;;;;;;;;;;4917916;29;20079;-56
2021/05/21 01:28:19;;;;;;;8.52;3.67;;;;;;;;;;4917354;29;20205;-55
2021/05/21 01:30:45;;;;;;;7.28;3.78;;;;;;;;;;4911493;29;20051;-55
2021/05/21 01:33:11;;;;;;;6.30;3.38;;;;;;;;;;4914984;29;20032;-56
2021/05/21 01:35:37;;;;;;;5.80;2.90;;;;;;;;;;4914804;29;20879;-55
2021/05/21 01:38:04;;;;;;;5.13;2.72;;;;;;;;;;4914707;29;20578;-57
2021/05/21 01:40:31;;;;;;;6.57;3.58;;;;;;;;;;4915866;29;20057;-57
2021/05/21 01:42:57;;;;;;;6.07;3.78;;;;;;;;;;4915492;29;20040;-57
2021/05/21 01:45:23;;;;;;;6.43;3.65;;;;;;;;;;4918193;29;20071;-56
2021/05/21 01:47:49;;;;;;;6.28;3.50;;;;;;;;;;4914674;28;20131;-58
2021/05/21 01:50:15;;;;;;;6.15;3.22;;;;;;;;;;4916953;29;20043;-58
2021/05/21 01:52:42;;;;;;;6.88;3.78;;;;;;;;;;4914013;29;20047;-57
2021/05/21 01:55:08;;;;;;;10.23;3.47;;;;;;;;;;4917733;29;20039;-58
2021/05/21 01:57:36;;;;;;;7.20;3.10;;;;;;;;;;4915958;29;20044;-57
2021/05/21 02:00:06;;;;;;;7.03;3.70;;;;;;;;;;4916113;29;20071;-56
2021/05/21 02:02:32;;;;;;;8.75;3.30;;;;;;;;;;4912966;29;20033;-56
2021/05/21 02:04:58;;;;;;;4.72;2.72;;;;;;;;;;4893615;29;20706;-58
2021/05/21 02:07:24;;;;;;;7.20;3.08;;;;;;;;;;4913341;29;20055;-55
2021/05/21 02:09:53;;;;;;;4.38;2.50;;;;;;;;;;4915530;29;20063;-57
2021/05/21 02:12:20;;;;;;;3.83;1.95;;;;;;;;;;4913335;29;20463;-55
2021/05/21 02:14:46;;;;;;;6.80;2.83;;;;;;;;;;4914657;29;20044;-58
2021/05/21 02:17:11;;;;;;;18.92;9.68;;;;;;;;;;4914171;29;20102;-53
2021/05/21 02:19:37;;;;;;;5.20;3.13;;;;;;;;;;4914394;29;21699;-58
2021/05/21 02:22:03;;;;;;;6.10;3.13;;;;;;;;;;4913182;29;20048;-57
2021/05/21 02:24:29;;;;;;;6.40;2.95;;;;;;;;;;4914398;29;20040;-56
2021/05/21 02:26:55;;;;;;;4.82;2.95;;;;;;;;;;4913803;29;20041;-55
2021/05/21 02:29:21;;;;;;;6.78;2.88;;;;;;;;;;4915730;29;20048;-56
2021/05/21 02:31:47;;;;;;;8.15;3.03;;;;;;;;;;4915407;29;20032;-53
2021/05/21 02:34:12;;;;;;;5.05;2.65;;;;;;;;;;4915138;29;20447;-55
2021/05/21 02:36:38;;;;;;;5.75;2.38;;;;;;;;;;4914819;29;20048;-55
2021/05/21 02:39:04;;;;;;;6.90;2.80;;;;;;;;;;4914181;29;20067;-55
2021/05/21 02:41:30;;;;;;;4.57;2.80;;;;;;;;;;4915344;29;20086;-55
2021/05/21 02:43:56;;;;;;;4.60;2.28;;;;;;;;;;4915374;29;20130;-54
2021/05/21 02:46:22;;;;;;;4.88;2.67;;;;;;;;;;4914271;29;20036;-54
2021/05/21 02:48:48;;;;;;;6.00;2.90;;;;;;;;;;4915419;29;20082;-54
2021/05/21 02:51:13;;;;;;;6.25;3.78;;;;;;;;;;4913769;29;20052;-56
2021/05/21 02:53:39;;;;;;;8.88;3.10;;;;;;;;;;4915195;29;21708;-57
2021/05/21 02:56:05;;;;;;;11.07;4.47;;;;;;;;;;4913862;29;20095;-56
2021/05/21 02:58:31;;;;;;;7.70;3.33;;;;;;;;;;4912891;29;20976;-53
2021/05/21 03:00:57;;;;;;;6.85;3.10;;;;;;;;;;4912702;29;20146;-55
2021/05/21 03:03:23;;;;;;;7.78;3.45;;;;;;;;;;4915153;29;20051;-51
2021/05/21 03:05:48;;;;;;;5.18;3.47;;;;;;;;;;4917939;29;20052;-54
2021/05/21 03:08:14;;;;;;;7.00;3.38;;;;;;;;;;4917422;29;20051;-54
2021/05/21 03:10:40;;;;;;;6.75;3.58;;;;;;;;;;4918551;29;20967;-54
2021/05/21 03:13:06;;;;;;;9.73;3.33;;;;;;;;;;4917301;29;20043;-55
2021/05/21 03:15:32;;;;;;;6.15;3.15;;;;;;;;;;4916655;29;20043;-56
2021/05/21 03:17:59;;;;;;;7.40;3.83;;;;;;;;;;4918109;29;20150;-53
2021/05/21 03:20:25;;;;;;;5.22;3.08;;;;;;;;;;4917714;29;20043;-52
2021/05/21 03:22:51;;;;;;;6.10;3.38;;;;;;;;;;4918406;29;20047;-55
2021/05/21 03:25:16;;;;;;;6.15;2.95;;;;;;;;;;4919538;29;20077;-55
2021/05/21 03:27:42;;;;;;;5.68;3.40;;;;;;;;;;4918777;29;20521;-54
2021/05/21 03:30:09;;;;;;;6.93;3.00;;;;;;;;;;4920540;29;20123;-55
2021/05/21 03:32:35;;;;;;;5.05;3.40;;;;;;;;;;4916702;29;20050;-55
2021/05/21 03:35:01;;;;;;;10.93;3.38;;;;;;;;;;4917874;29;20571;-54
2021/05/21 03:37:27;;;;;;;10.43;3.17;;;;;;;;;;4916666;29;20052;-55
2021/05/21 03:39:53;;;;;;;5.28;2.88;;;;;;;;;;4917736;29;20050;-54
2021/05/21 03:42:18;;;;;;;5.80;3.03;;;;;;;;;;4917495;29;20043;-54
2021/05/21 03:44:44;;;;;;;7.60;2.70;;;;;;;;;;4919199;29;20107;-55
2021/05/21 03:47:10;;;;;;;5.93;2.70;;;;;;;;;;4919251;29;20068;-51
2021/05/21 03:49:37;;;;;;;8.55;2.85;;;;;;;;;;4916566;29;20128;-56
2021/05/21 03:52:03;;;;;;;7.13;3.13;;;;;;;;;;4918012;29;20045;-53
2021/05/21 03:54:29;;;;;;;7.38;3.35;;;;;;;;;;4918353;29;20103;-54
2021/05/21 03:56:55;;;;;;;9.57;2.83;;;;;;;;;;4920010;29;20044;-51
2021/05/21 03:59:21;;;;;;;5.90;2.40;;;;;;;;;;4919719;29;20650;-52
2021/05/21 04:01:47;;;;;;;4.32;2.50;;;;;;;;;;4919581;29;20048;-54
2021/05/21 04:04:13;;;;;;;7.60;3.25;;;;;;;;;;4921715;29;20047;-54
2021/05/21 04:06:39;;;;;;;5.40;2.40;;;;;;;;;;4918826;29;20059;-53
2021/05/21 04:09:06;;;;;;;6.50;3.20;;;;;;;;;;4917932;29;20056;-54
2021/05/21 04:11:36;;;;;;;8.02;3.33;;;;;;;;;;4918224;29;20040;-53
2021/05/21 04:14:02;;;;;;;6.00;2.88;;;;;;;;;;4918275;29;20040;-53
2021/05/21 04:16:28;;;;;;;6.15;2.90;;;;;;;;;;4916200;29;20036;-54
2021/05/21 04:18:54;;;;;;;6.18;3.05;;;;;;;;;;4919575;29;20044;-53
2021/05/21 04:21:20;;;;;;;5.03;2.30;;;;;;;;;;4918096;29;20079;-54
2021/05/21 04:23:46;;;;;;;4.10;2.45;;;;;;;;;;4917241;29;20031;-51
2021/05/21 04:26:12;;;;;;;7.65;3.85;;;;;;;;;;4916838;29;20051;-55
2021/05/21 04:28:39;;;;;;;8.60;3.80;;;;;;;;;;4918723;29;20035;-54
2021/05/21 04:31:05;;;;;;;5.45;3.13;;;;;;;;;;4918220;29;20044;-55
2021/05/21 04:33:31;;;;;;;6.70;3.20;;;;;;;;;;4899553;29;20403;-55
2021/05/21 04:35:57;;;;;;;5.68;2.92;;;;;;;;;;4916604;29;20048;-55
2021/05/21 04:38:22;;;;;;;7.18;3.25;;;;;;;;;;4918608;29;20468;-52
2021/05/21 04:40:48;;;;;;;6.40;3.30;;;;;;;;;;4919627;29;20063;-52
2021/05/21 04:43:14;;;;;;;6.18;3.00;;;;;;;;;;4919080;29;20047;-49
2021/05/21 04:45:40;;;;;;;10.18;3.38;;;;;;;;;;4918400;29;20068;-53
2021/05/21 04:48:06;;;;;;;5.68;3.03;;;;;;;;;;4916870;29;20153;-55
2021/05/21 04:50:32;;;;;;;5.00;3.10;;;;;;;;;;4918033;29;20057;-55
2021/05/21 04:52:57;;;;;;;5.00;2.90;;;;;;;;;;4916515;29;22093;-54
2021/05/21 04:55:24;;;;;;;6.03;3.05;;;;;;;;;;4918310;29;20048;-54
2021/05/21 04:57:50;;;;;;;6.35;3.08;;;;;;;;;;4917303;29;20040;-55
2021/05/21 05:00:17;;;;;;;6.57;3.40;;;;;;;;;;4918079;29;20083;-55
2021/05/21 05:02:43;;;;;;;7.13;3.65;;;;;;;;;;4917382;29;20559;-54
2021/05/21 05:05:09;;;;;;;11.88;4.93;;;;;;;;;;4918440;29;20039;-53
2021/05/21 05:07:34;;;;;;;4.82;2.95;;;;;;;;;;4918723;29;20054;-51
2021/05/21 05:10:00;;;;;;;5.30;3.35;;;;;;;;;;4918358;29;20051;-54
2021/05/21 05:12:26;;;;;;;6.90;2.30;;;;;;;;;;4916016;29;20134;-52
2021/05/21 05:14:52;;;;;;;6.35;2.72;;;;;;;;;;4917764;29;20044;-53
2021/05/21 05:17:18;;;;;;;10.65;2.80;;;;;;;;;;4917223;29;20150;-53
2021/05/21 05:19:44;;;;;;;6.78;2.85;;;;;;;;;;4919017;29;20055;-54
2021/05/21 05:22:11;;;;;;;4.78;3.03;;;;;;;;;;4918626;29;20067;-55
2021/05/21 05:24:36;;;;;;;5.10;3.10;;;;;;;;;;4911997;29;20091;-54
2021/05/21 05:27:02;;;;;;;5.10;2.83;;;;;;;;;;4917638;29;20407;-53
2021/05/21 05:29:30;;;;;;;5.70;2.83;;;;;;;;;;4917590;29;20149;-54
2021/05/21 05:31:56;;;;;;;8.15;3.10;;;;;;;;;;4916217;29;20049;-55
2021/05/21 05:34:21;;;;;;;8.57;4.13;;;;;;;;;;4917254;29;20036;-51
2021/05/21 05:36:47;;;;;;;5.18;2.75;;;;;;;;;;4916174;29;20078;-53
2021/05/21 05:39:13;;;;;;;7.50;3.25;;;;;;;;;;4914309;28;20031;-55
2021/05/21 05:41:39;;;;;;;4.70;2.83;;;;;;;;;;4915404;29;20632;-54
2021/05/21 05:44:05;;;;;;;6.93;2.58;;;;;;;;;;4918581;29;20136;-54
2021/05/21 05:46:31;;;;;;;5.80;3.33;;;;;;;;;;4916560;29;20040;-53
2021/05/21 05:48:56;;;;;;;4.40;1.92;;;;;;;;;;4916820;29;20090;-55
2021/05/21 05:51:22;;;;;;;4.80;2.92;;;;;;;;;;4916211;29;20122;-55
2021/05/21 05:53:48;;;;;;;6.07;2.97;;;;;;;;;;4917024;29;20043;-54
2021/05/21 05:56:14;;;;;;;5.55;2.88;;;;;;;;;;4917108;29;20127;-54
2021/05/21 05:58:40;;;;;;;7.15;3.00;;;;;;;;;;4916388;29;20044;-53
2021/05/21 06:01:06;;;;;;;5.35;3.53;;;;;;;;;;4916708;29;20060;-55
2021/05/21 06:03:32;;;;;;;6.28;3.00;;;;;;;;;;4916604;29;20036;-55
2021/05/21 06:05:58;;;;;;;6.25;3.20;;;;;;;;;;4918501;29;20070;-55
2021/05/21 06:08:24;;;;;;;6.57;3.33;;;;;;;;;;4915120;29;20077;-54
2021/05/21 06:10:51;;;;;;;6.72;3.42;;;;;;;;;;4915275;29;20567;-54
2021/05/21 06:13:16;;;;;;;6.35;2.80;;;;;;;;;;4916687;29;20040;-55
2021/05/21 06:15:42;;;;;;;5.78;2.83;;;;;;;;;;4915320;29;20126;-54
2021/05/21 06:18:08;;;;;;;10.20;3.45;;;;;;;;;;4915779;29;20514;-55
2021/05/21 06:20:34;;;;;;;8.88;3.08;;;;;;;;;;4915233;29;20147;-54
2021/05/21 06:23:04;;;;;;;6.70;3.35;;;;;;;;;;4915502;29;20039;-54
2021/05/21 06:28:25;;;;;;;5.63;2.88;;;;;;;;;;4891188;29;20462;-52
2021/05/21 06:30:51;;;;;;;5.45;2.95;;;;;;;;;;4916512;29;20131;-54
2021/05/21 06:33:17;;;;;;;5.57;3.05;;;;;;;;;;4917749;29;20047;-53
2021/05/21 06:35:43;;;;;;;6.28;3.30;;;;;;;;;;4912931;29;20091;-51
2021/05/21 06:38:09;;;;;;;5.30;2.85;;;;;;;;;;4917648;29;20585;-53
2021/05/21 06:40:35;;;;;;;6.80;3.20;;;;;;;;;;4918611;29;20060;-54
2021/05/21 06:43:10;;;;;;;4.68;2.67;;;;;;;;;;4919520;29;20044;-54
2021/05/21 06:45:37;;;;;;;4.82;2.72;;;;;;;;;;4920537;29;20394;-51
2021/05/21 06:48:03;;;;;;;6.70;2.92;;;;;;;;;;4922276;29;20048;-54
2021/05/21 06:50:29;;;;;;;6.25;3.08;;;;;;;;;;4920365;29;20077;-52
2021/05/21 06:52:55;;;;;;;5.03;2.85;;;;;;;;;;4921985;29;20137;-55
2021/05/21 06:55:20;;;;;;;6.72;2.78;;;;;;;;;;4901512;29;20138;-54
2021/05/21 06:57:46;;;;;;;6.70;2.53;;;;;;;;;;4919509;29;20063;-54
2021/05/21 07:00:13;;;;;;;4.95;2.80;;;;;;;;;;4920152;29;20522;-54
2021/05/21 07:02:40;;;;;;;5.00;2.30;;;;;;;;;;4918309;29;20055;-52
2021/05/21 07:05:06;;;;;;;5.55;2.88;;;;;;;;;;4921026;29;20058;-54
2021/05/21 07:07:32;;;;;;;4.45;2.78;;;;;;;;;;4919383;29;20415;-53
2021/05/21 07:09:59;;;;;;;5.00;2.75;;;;;;;;;;4919241;29;20170;-53
2021/05/21 07:12:25;;;;;;;7.78;2.88;;;;;;;;;;4919546;29;20114;-55
2021/05/21 07:14:51;;;;;;;6.30;2.55;;;;;;;;;;4920684;29;20494;-54
2021/05/21 07:17:17;;;;;;;4.78;2.15;;;;;;;;;;4919262;29;20047;-54
2021/05/21 07:19:43;;;;;;;8.30;2.65;;;;;;;;;;4918901;29;20071;-56
2021/05/21 07:22:08;;;;;;;7.65;2.53;;;;;;;;;;4919682;29;20055;-53
2021/05/21 07:24:34;;;;;;;4.10;2.25;;;;;;;;;;4920298;29;20044;-53
2021/05/21 07:27:00;;;;;;;5.90;2.42;;;;;;;;;;4920127;29;20063;-54
2021/05/21 07:29:26;;;;;;;4.75;2.50;;;;;;;;;;4917509;29;21081;-54
2021/05/21 07:31:52;;;;;;;6.65;3.63;;;;;;;;;;4917531;29;20044;-54
2021/05/21 07:34:19;;;;;;;4.93;2.22;;;;;;;;;;4919370;29;20047;-56
2021/05/21 07:36:45;;;;;;;5.55;2.28;;;;;;;;;;4920419;29;20042;-51
2021/05/21 07:39:14;;;;;;;5.10;2.17;;;;;;;;;;4920489;29;20470;-55
2021/05/21 07:41:40;;;;;;;5.90;2.47;;;;;;;;;;4919780;29;20056;-54
2021/05/21 07:44:07;;;;;;;6.07;2.33;;;;;;;;;;4920291;29;20723;-54
2021/05/21 07:46:34;;;;;;;4.20;2.20;;;;;;;;;;4918389;29;20094;-56
2021/05/21 07:49:00;;;;;;;7.20;2.53;;;;;;;;;;4919371;29;20040;-55
2021/05/21 07:51:25;;;;;;;5.18;2.22;;;;;;;;;;4918168;29;20067;-54
2021/05/21 07:53:51;;;;;;;5.03;2.38;;;;;;;;;;4919542;29;20115;-54
2021/05/21 07:56:17;;;;;;;9.38;2.53;;;;;;;;;;4919682;29;20086;-52
2021/05/21 07:58:43;;;;;;;4.93;2.50;;;;;;;;;;4917422;29;20055;-54
2021/05/21 08:01:09;;;;;;;4.35;1.63;;;;;;;;;;4919053;29;20511;-54
2021/05/21 08:03:34;;;;;;;3.78;1.98;;;;;;;;;;4918728;29;20071;-54
2021/05/21 08:06:01;;;;;;;6.63;2.70;;;;;;;;;;4918555;29;20193;-53
2021/05/21 08:08:27;;;;;;;4.57;2.50;;;;;;;;;;4918665;29;20048;-52
2021/05/21 08:10:54;;;;;;;6.07;2.38;;;;;;;;;;4918484;29;20168;-54
2021/05/21 08:13:20;;;;;;;5.85;2.33;;;;;;;;;;4918305;29;20036;-54
2021/05/21 08:15:46;;;;;;;5.30;2.50;;;;;;;;;;4919617;29;20050;-54
2021/05/21 08:18:12;;;;;;;6.78;2.42;;;;;;;;;;4920401;29;20044;-53
2021/05/21 08:20:39;;;;;;;6.57;2.60;;;;;;;;;;4896574;29;20087;-52
2021/05/21 08:23:05;;;;;;;4.85;2.63;;;;;;;;;;4919472;29;20538;-52
2021/05/21 08:25:31;;;;;;;4.53;2.35;;;;;;;;;;4918738;29;20394;-54
2021/05/21 08:27:56;;;;;;;4.20;2.17;;;;;;;;;;4918892;29;20102;-54
2021/05/21 08:30:22;;;;;;;5.65;2.80;;;;;;;;;;4917554;29;20123;-55
2021/05/21 08:32:49;;;;;;;4.68;2.40;;;;;;;;;;4918346;29;20062;-54
2021/05/21 08:35:16;;;;;;;5.03;2.63;;;;;;;;;;4917737;29;20071;-52
2021/05/21 08:37:42;;;;;;;4.47;2.13;;;;;;;;;;4918645;29;20055;-55
2021/05/21 08:40:08;;;;;;;4.05;2.35;;;;;;;;;;4919710;29;20522;-54
2021/05/21 08:42:39;;;;;;;5.60;2.45;;;;;;;;;;4917214;29;20164;-55
2021/05/21 08:45:06;;;;;;;4.30;2.38;;;;;;;;;;4920005;29;20048;-55
2021/05/21 08:47:32;;;;;;;5.68;2.58;;;;;;;;;;4917133;29;20036;-55
2021/05/21 08:50:01;;;;;;;5.90;2.17;;;;;;;;;;4918508;29;20043;-55
2021/05/21 08:52:27;;;;;;;4.88;2.30;;;;;;;;;;4917310;29;20040;-53
2021/05/21 08:54:53;;;;;;;5.28;2.30;;;;;;;;;;4917333;29;20046;-55
2021/05/21 08:57:19;;;;;;;4.28;2.30;;;;;;;;;;4917142;29;20051;-54
2021/05/21 08:59:45;;;;;;;5.47;2.42;;;;;;;;;;4917964;29;20044;-55
2021/05/21 09:02:14;;;;;;;5.50;2.25;;;;;;;;;;4917552;29;20051;-55
2021/05/21 09:04:53;;;;;;;6.05;2.45;;;;;;;;;;4917816;29;20036;-53
2021/05/21 09:07:23;;;;;;;4.63;2.15;;;;;;;;;;4915292;29;20054;-55
2021/05/21 09:09:49;;;;;;;5.13;2.22;;;;;;;;;;4918091;29;20099;-53
2021/05/21 09:12:15;;;;;;;6.18;2.35;;;;;;;;;;4917448;29;20046;-54
2021/05/21 09:14:41;;;;;;;4.53;2.20;;;;;;;;;;4917982;29;20039;-52
2021/05/21 09:17:22;;;;;;;4.65;2.10;;;;;;;;;;4916745;29;20063;-54
2021/05/21 09:19:48;;;;;;;4.18;2.17;;;;;;;;;;4913852;28;20099;-53
2021/05/21 09:22:14;;;;;;;4.97;2.35;;;;;;;;;;4918805;29;20787;-52
2021/05/21 09:24:42;;;;;;;4.50;2.30;;;;;;;;;;4915640;29;20067;-52
2021/05/21 09:27:09;;;;;;;5.65;2.30;;;;;;;;;;4919868;29;20051;-52
2021/05/21 09:29:47;;;;;;;5.30;2.28;;;;;;;;;;4914256;29;20040;-54
2021/05/21 09:32:18;;;;;;;5.70;2.65;;;;;;;;;;4919411;29;20184;-54
2021/05/21 09:34:48;;;;;;;5.22;2.40;;;;;;;;;;4918090;29;20748;-55
2021/05/21 09:37:24;;;;;;;4.90;2.40;;;;;;;;;;4917123;29;20048;-52
2021/05/21 09:40:09;;;;;;;5.10;2.53;;;;;;;;;;4917340;29;20039;-55
2021/05/21 09:42:49;;;;;;;4.45;2.40;;;;;;;;;;4915938;29;20107;-51
2021/05/21 09:45:15;;;;;;;4.50;2.45;;;;;;;;;;4918438;29;20054;-53
2021/05/21 09:47:48;;;;;;;5.72;2.28;;;;;;;;;;4918980;29;20048;-53
2021/05/21 09:50:13;;;;;;;5.65;2.70;;;;;;;;;;4918629;29;20534;-54
2021/05/21 09:52:48;;;;;;;5.28;2.47;;;;;;;;;;4917141;29;20056;-52
2021/05/21 09:55:15;;;;;;;4.85;2.15;;;;;;;;;;4918390;29;20113;-51
2021/05/21 09:57:41;;;;;;;6.35;2.30;;;;;;;;;;4895594;29;20737;-54
2021/05/21 10:00:10;;;;;;;4.53;2.25;;;;;;;;;;4899796;29;20060;-52
2021/05/21 10:02:37;;;;;;;9.23;2.53;;;;;;;;;;4900862;29;20044;-53
2021/05/21 10:05:04;;;;;;;4.65;2.47;;;;;;;;;;4901549;29;20091;-53
2021/05/21 10:07:30;;;;;;;5.13;2.70;;;;;;;;;;4899844;29;20046;-52
2021/05/21 10:09:56;;;;;;;7.07;2.50;;;;;;;;;;4899326;29;20052;-53
2021/05/21 10:12:23;;;;;;;5.75;2.47;;;;;;;;;;4897685;29;20091;-53
2021/05/21 10:14:50;;;;;;;5.28;2.33;;;;;;;;;;4900210;29;20051;-53
2021/05/21 10:17:18;;;;;;;4.25;2.17;;;;;;;;;;4900992;29;20685;-52
2021/05/21 10:19:44;;;;;;;4.53;2.45;;;;;;;;;;4918759;29;20047;-53
2021/05/21 10:22:12;;;;;;;5.35;2.30;;;;;;;;;;4916620;29;20355;-54
2021/05/21 10:24:40;;;;;;;4.32;2.20;;;;;;;;;;4916818;29;20047;-53
2021/05/21 10:27:10;;;;;;;5.45;2.30;;;;;;;;;;4915842;29;20056;-55
2021/05/21 10:29:36;;;;;;;6.18;2.80;;;;;;;;;;4915272;29;20138;-55
2021/05/21 10:32:17;;;;;;;5.35;2.90;;;;;;;;;;4915546;29;20130;-52
2021/05/21 10:34:44;;;;;;;6.88;3.47;;;;;;;;;;4914558;29;20487;-54
2021/05/21 10:37:24;;;;;;;5.78;2.83;;;;;;;;;;4917809;29;20058;-54
2021/05/21 10:39:58;;;;;;;4.57;2.80;;;;;;;;;;4914604;29;20039;-54
2021/05/21 10:42:24;;;;;;;5.75;2.60;;;;;;;;;;4916722;29;20068;-52
2021/05/21 10:44:51;;;;;;;6.15;3.00;;;;;;;;;;4917370;29;20128;-53
2021/05/21 10:47:16;;;;;;;4.88;2.78;;;;;;;;;;4916581;29;20055;-53
2021/05/21 10:50:03;;;;;;;5.05;3.00;;;;;;;;;;4913695;29;20048;-55
2021/05/21 10:52:47;;;;;;;5.97;2.80;;;;;;;;;;4916396;29;20047;-53
2021/05/21 10:55:12;;;;;;;5.32;3.20;;;;;;;;;;4917077;29;20055;-52
2021/05/21 10:57:42;;;;;;;5.53;2.60;;;;;;;;;;4914824;29;20452;-52
2021/05/21 11:00:08;;;;;;;7.32;3.03;;;;;;;;;;4915165;29;20483;-53
2021/05/21 11:02:43;;;;;;;6.68;3.10;;;;;;;;;;4914108;29;20048;-53
2021/05/21 11:05:22;;;;;;;5.20;2.80;;;;;;;;;;4917133;29;20046;-53
2021/05/21 11:07:53;;;;;;;5.88;2.88;;;;;;;;;;4907815;29;20127;-54
2021/05/21 11:10:34;;;;;;;7.80;2.70;;;;;;;;;;4916297;29;20395;-52
2021/05/21 11:13:01;;;;;;;6.07;2.60;;;;;;;;;;4917258;29;20094;-52
2021/05/21 11:15:35;;;;;;;5.18;3.03;;;;;;;;;;4914644;29;20040;-53
2021/05/21 11:18:24;;;;;;;5.60;2.70;;;;;;;;;;4915627;29;20547;-52
2021/05/21 11:20:58;;;;;;;5.38;2.85;;;;;;;;;;4916551;29;20058;-53
2021/05/21 11:23:23;;;;;;;;;;;;;;;;;;4916490;29;20051;-53
2021/05/21 11:26:05;;;;;;;6.50;3.10;;;;;;;;;;4919052;29;19919;-54
2021/05/21 11:28:38;;;;;;;7.03;2.80;;;;;;;;;;4918162;29;20046;-53
2021/05/21 11:31:11;;;;;;;5.60;3.05;;;;;;;;;;4920304;29;20043;-53
2021/05/21 11:33:37;;;;;;;5.70;3.05;;;;;;;;;;4918291;29;22680;-53
2021/05/21 11:36:07;;;;;;;5.63;2.90;;;;;;;;;;4920937;29;20040;-51
2021/05/21 11:38:33;;;;;;;6.97;3.05;;;;;;;;;;4918994;29;20050;-52
2021/05/21 11:40:58;;;;;;;8.35;2.95;;;;;;;;;;4920348;29;20067;-51
2021/05/21 11:43:25;;;;;;;5.70;2.88;;;;;;;;;;4920320;29;20143;-53
2021/05/21 11:45:52;;;;;;;6.43;3.15;;;;;;;;;;4923164;29;20128;-52
2021/05/21 11:48:34;;;;;;;8.93;3.40;;;;;;;;;;4919129;29;20151;-53
2021/05/21 11:51:01;;;;;;;6.80;3.15;;;;;;;;;;4920886;29;20387;-54
2021/05/21 11:53:27;;;;;;;6.90;3.45;;;;;;;;;;4916577;29;20064;-55
2021/05/21 11:55:53;;;;;;;8.25;3.70;;;;;;;;;;4917184;29;20058;-56
2021/05/21 11:58:27;;;;;;;7.78;3.35;;;;;;;;;;4917102;29;20035;-54
2021/05/21 12:00:59;;;;;;;7.60;4.35;;;;;;;;;;4918862;29;21936;-59
2021/05/21 12:03:30;;;;;;;5.82;2.88;;;;;;;;;;4917526;29;20040;-55
2021/05/21 12:05:56;;;;;;;6.57;3.47;;;;;;;;;;4920360;29;20103;-56
2021/05/21 12:08:22;;;;;;;7.88;3.47;;;;;;;;;;4918085;29;20044;-56
2021/05/21 12:10:54;;;;;;;6.72;3.55;;;;;;;;;;4913697;29;20058;-57
2021/05/21 12:13:20;;;;;;;7.80;3.97;;;;;;;;;;4917245;29;20039;-56
2021/05/21 12:15:46;;;;;;;9.80;3.63;;;;;;;;;;4918624;29;20490;-58
2021/05/21 12:18:12;;;;;;;11.85;4.50;;;;;;;;;;4917359;29;20046;-56
2021/05/21 12:20:38;;;;;;;10.15;3.75;;;;;;;;;;4917327;29;20143;-57
2021/05/21 12:23:05;;;;;;;7.25;3.40;;;;;;;;;;4919339;29;20066;-56
2021/05/21 12:25:32;;;;;;;7.90;3.15;;;;;;;;;;4917777;29;20050;-55
2021/05/21 12:27:59;;;;;;;10.43;3.72;;;;;;;;;;4917508;29;20083;-56
2021/05/21 12:30:25;;;;;;;7.45;3.70;;;;;;;;;;4919178;29;20043;-57
2021/05/21 12:32:51;;;;;;;7.97;3.72;;;;;;;;;;4917735;29;20596;-57
2021/05/21 12:35:19;;;;;;;7.78;3.10;;;;;;;;;;4918263;29;20059;-56
2021/05/21 12:37:45;;;;;;;6.57;3.60;;;;;;;;;;4916321;29;20040;-57
2021/05/21 12:40:12;;;;;;;9.15;3.83;;;;;;;;;;4917685;29;20181;-56
2021/05/21 12:42:51;;;;;;;7.93;3.28;;;;;;;;;;4899871;29;20043;-57
2021/05/21 12:45:17;;;;;;;7.60;3.42;;;;;;;;;;4917860;29;20039;-57
2021/05/21 12:47:50;;;;;;;6.72;3.78;;;;;;;;;;4906737;29;20621;-55
2021/05/21 12:50:17;;;;;;;8.98;3.28;;;;;;;;;;4906143;29;20135;-57
2021/05/21 12:52:56;;;;;;;5.90;3.15;;;;;;;;;;4906204;29;20126;-57
2021/05/21 12:55:22;;;;;;;6.57;3.58;;;;;;;;;;4907475;29;20044;-55
2021/05/21 12:57:48;;;;;;;7.35;3.63;;;;;;;;;;4906689;29;20288;-55
2021/05/21 13:00:18;;;;;;;6.35;3.47;;;;;;;;;;4907066;29;20063;-56
2021/05/21 13:02:49;;;;;;;7.63;3.42;;;;;;;;;;4906266;29;20202;-56
2021/05/21 13:05:15;;;;;;;7.65;3.15;;;;;;;;;;4906878;29;20280;-56
2021/05/21 13:07:42;;;;;;;9.18;3.80;;;;;;;;;;4905013;29;20382;-53
2021/05/21 13:10:09;;;;;;;6.90;3.45;;;;;;;;;;4907799;29;20743;-57
2021/05/21 13:12:40;;;;;;;8.35;3.30;;;;;;;;;;4907750;29;20082;-56
2021/05/21 13:15:10;;;;;;;6.45;3.13;;;;;;;;;;4916446;29;20044;-56
2021/05/21 13:17:40;;;;;;;6.65;3.30;;;;;;;;;;4916973;29;20047;-57
2021/05/21 13:20:07;;;;;;;6.35;3.80;;;;;;;;;;4913923;29;20063;-57
2021/05/21 13:22:33;;;;;;;5.70;3.17;;;;;;;;;;4898545;29;20376;-57
2021/05/21 13:25:01;;;;;;;7.70;3.60;;;;;;;;;;4916738;29;20051;-58
2021/05/21 13:27:30;;;;;;;7.35;3.45;;;;;;;;;;4911751;29;20600;-57
2021/05/21 13:29:56;;;;;;;7.32;3.90;;;;;;;;;;4913078;29;20040;-54
2021/05/21 13:32:23;;;;;;;8.15;3.35;;;;;;;;;;4913325;29;20146;-57
2021/05/21 13:34:49;;;;;;;6.35;3.30;;;;;;;;;;4914969;29;20055;-56
2021/05/21 13:37:15;;;;;;;8.48;2.97;;;;;;;;;;4914214;29;20044;-58
2021/05/21 13:39:40;;;;;;;6.43;3.20;;;;;;;;;;4911041;29;20047;-58
2021/05/21 13:42:07;;;;;;;8.13;3.72;;;;;;;;;;4915148;29;20052;-57
2021/05/21 13:44:33;;;;;;;5.55;2.83;;;;;;;;;;4911670;29;20040;-57
2021/05/21 13:46:58;;;;;;;7.93;3.70;;;;;;;;;;4917435;29;20390;-57
2021/05/21 13:49:24;;;;;;;6.25;3.63;;;;;;;;;;4917066;29;20114;-53
2021/05/21 13:51:54;;;;;;;7.18;3.50;;;;;;;;;;4917863;29;20110;-57
2021/05/21 13:54:20;;;;;;;7.40;3.72;;;;;;;;;;4919543;29;20062;-57
2021/05/21 13:56:46;;;;;;;10.75;3.33;;;;;;;;;;4918480;29;20043;-55
2021/05/21 13:59:12;;;;;;;5.32;2.50;;;;;;;;;;4914310;29;20055;-56
2021/05/21 14:01:38;;;;;;;7.10;3.80;;;;;;;;;;4915550;29;20055;-54
2021/05/21 14:04:04;;;;;;;6.88;3.60;;;;;;;;;;4915545;29;20046;-56
2021/05/21 14:06:30;;;;;;;5.65;2.92;;;;;;;;;;4918100;29;20058;-57
2021/05/21 14:08:56;;;;;;;5.55;3.15;;;;;;;;;;4917278;29;20379;-56
2021/05/21 14:11:22;;;;;;;5.32;2.90;;;;;;;;;;4918456;29;20044;-54
2021/05/21 14:13:47;;;;;;;8.68;3.30;;;;;;;;;;4916126;29;20523;-57
2021/05/21 14:16:13;;;;;;;5.80;3.50;;;;;;;;;;4921077;29;20118;-57
2021/05/21 14:18:39;;;;;;;5.45;3.30;;;;;;;;;;4921438;29;20517;-55
2021/05/21 14:21:05;;;;;;;6.35;3.67;;;;;;;;;;4924177;29;20067;-56
2021/05/21 14:23:32;;;;;;;5.75;3.13;;;;;;;;;;4924285;29;20170;-55
2021/05/21 14:25:58;;;;;;;5.85;3.25;;;;;;;;;;4925481;29;20043;-56
2021/05/21 14:28:24;;;;;;;5.10;2.85;;;;;;;;;;4922973;29;20036;-57
2021/05/21 14:30:50;;;;;;;5.68;3.30;;;;;;;;;;4926968;29;20044;-58
2021/05/21 14:33:18;;;;;;;6.88;3.33;;;;;;;;;;4927519;29;20234;-56
2021/05/21 14:35:44;;;;;;;6.50;3.17;;;;;;;;;;4917320;29;20603;-57
2021/05/21 14:38:10;;;;;;;6.50;3.17;;;;;;;;;;4926690;29;20070;-58
2021/05/21 14:40:36;;;;;;;13.25;3.70;;;;;;;;;;4901365;29;20049;-57
2021/05/21 14:43:02;;;;;;;8.95;3.65;;;;;;;;;;4901495;29;20048;-56
2021/05/21 14:45:28;;;;;;;7.47;3.70;;;;;;;;;;4879953;29;20097;-58